Time;durP1;ratioP1;P1;durP2;ratioP2;P2;SDS_P1;SDS_P2;PMS_P1;PMS_P2;Temp;Humidity;BMP_temperature;BMP_pressure;BME280_temperature;BME280_humidity;BME280_pressure;Samples;Min_cycle;Max_cycle;Signal;HPM_P1;HPM_P2
2022/10/03 00:02:39;;;;;;;3.95;2.95;;;15.90;56.00;;;;;;4917706;29;20220;-35
2022/10/03 00:05:23;;;;;;;3.20;2.83;;;15.90;56.00;;;;;;4925529;29;20202;-35
2022/10/03 00:08:09;;;;;;;3.08;2.60;;;16.00;56.00;;;;;;4936246;29;20239;-37
2022/10/03 00:10:54;;;;;;;4.10;3.13;;;16.00;55.90;;;;;;4935892;29;20204;-35
2022/10/03 00:13:31;;;;;;;3.95;3.17;;;16.00;55.90;;;;;;4935103;29;20202;-35
2022/10/03 00:16:10;;;;;;;3.63;2.97;;;16.00;55.90;;;;;;4936396;29;20214;-37
2022/10/03 00:18:55;;;;;;;3.25;2.88;;;16.00;56.00;;;;;;4936529;29;20669;-36
2022/10/03 00:21:39;;;;;;;3.38;3.03;;;16.10;56.00;;;;;;4935381;29;20226;-35
2022/10/03 00:24:22;;;;;;;3.17;2.88;;;16.10;56.00;;;;;;4935051;29;20214;-37
2022/10/03 00:26:58;;;;;;;3.58;2.80;;;16.10;56.00;;;;;;4934492;29;20726;-35
2022/10/03 00:29:47;;;;;;;3.50;2.85;;;16.10;56.00;;;;;;4933974;29;20251;-35
2022/10/03 00:32:32;;;;;;;4.57;3.30;;;16.10;56.00;;;;;;4947738;28;20226;-35
2022/10/03 00:35:20;;;;;;;4.22;3.83;;;16.20;56.10;;;;;;4953615;28;20237;-36
2022/10/03 00:38:07;;;;;;;3.60;3.20;;;16.20;56.10;;;;;;4951996;28;20198;-39
2022/10/03 00:41:13;;;;;;;4.63;3.47;;;16.20;56.10;;;;;;4933988;29;20274;-36
2022/10/03 00:44:03;;;;;;;4.25;3.30;;;16.30;56.70;;;;;;4934395;29;20203;-35
2022/10/03 00:47:07;;;;;;;4.63;3.30;;;16.30;56.10;;;;;;4938766;29;20309;-36
2022/10/03 00:50:18;;;;;;;4.43;3.33;;;16.30;56.10;;;;;;4914674;29;20204;-40
2022/10/03 00:53:08;;;;;;;6.80;3.65;;;16.40;56.10;;;;;;4915124;29;20216;-36
2022/10/03 00:55:55;;;;;;;4.15;3.47;;;16.40;56.10;;;;;;4915230;29;20216;-40
2022/10/03 00:58:51;;;;;;;4.50;3.65;;;16.40;56.10;;;;;;4915481;29;20200;-36
2022/10/03 01:01:33;;;;;;;4.53;3.40;;;16.50;56.10;;;;;;4923574;28;20223;-35
2022/10/03 01:04:20;;;;;;;3.63;3.10;;;16.50;56.10;;;;;;4934083;29;20187;-36
2022/10/03 01:07:07;;;;;;;3.60;3.30;;;16.50;56.10;;;;;;4933941;29;20231;-35
2022/10/03 01:09:58;;;;;;;3.83;3.42;;;16.50;56.10;;;;;;4933835;29;20207;-37
2022/10/03 01:12:53;;;;;;;4.32;3.45;;;16.50;56.00;;;;;;4933679;29;20224;-39
2022/10/03 01:15:38;;;;;;;3.95;3.40;;;16.60;56.10;;;;;;4911721;29;20207;-37
2022/10/03 01:18:28;;;;;;;4.60;3.10;;;16.60;56.00;;;;;;4950250;29;20265;-36
2022/10/03 01:21:09;;;;;;;4.72;3.50;;;16.60;56.00;;;;;;4952671;28;20203;-36
2022/10/03 01:24:09;;;;;;;4.53;3.72;;;16.60;56.00;;;;;;4952688;28;20656;-36
2022/10/03 01:27:03;;;;;;;4.03;3.63;;;16.60;56.10;;;;;;4948821;28;20226;-36
2022/10/03 01:32:43;;;;;;;4.18;3.50;;;16.70;56.10;;;;;;4952222;28;20233;-35
2022/10/03 01:35:27;;;;;;;4.00;3.70;;;16.70;56.10;;;;;;4952894;28;20207;-35
2022/10/03 01:38:11;;;;;;;4.45;3.60;;;16.70;56.10;;;;;;4950205;28;20318;-36
2022/10/03 01:40:46;;;;;;;3.92;3.53;;;16.70;56.10;;;;;;4933478;29;20207;-35
2022/10/03 01:43:22;;;;;;;4.50;3.90;;;16.70;56.10;;;;;;4933022;29;20219;-37
2022/10/03 01:46:07;;;;;;;5.18;3.50;;;16.80;56.10;;;;;;4932915;29;20208;-35
2022/10/03 01:48:46;;;;;;;4.30;3.58;;;16.80;56.10;;;;;;4914171;29;20656;-36
2022/10/03 01:51:23;;;;;;;3.83;3.50;;;16.80;56.10;;;;;;4914002;29;20243;-36
2022/10/03 01:54:15;;;;;;;4.38;3.97;;;16.90;56.10;;;;;;4914509;29;20208;-36
2022/10/03 01:56:54;;;;;;;4.90;4.22;;;16.90;56.10;;;;;;4914425;29;20263;-35
2022/10/03 01:59:34;;;;;;;4.63;3.85;;;16.90;56.20;;;;;;4914070;29;20215;-35
2022/10/03 02:02:12;;;;;;;4.40;4.00;;;16.90;56.20;;;;;;4928055;29;20321;-35
2022/10/03 02:04:49;;;;;;;4.13;3.60;;;16.90;56.20;;;;;;4952436;28;20206;-36
2022/10/03 02:07:27;;;;;;;4.55;3.92;;;17.00;56.20;;;;;;4952369;28;20230;-35
2022/10/03 02:10:08;;;;;;;3.88;3.50;;;17.00;56.20;;;;;;4934270;28;20203;-38
2022/10/03 02:12:48;;;;;;;3.85;3.42;;;17.00;56.20;;;;;;4932846;29;20593;-37
2022/10/03 02:15:22;;;;;;;4.70;4.20;;;17.00;56.10;;;;;;4933032;29;20234;-36
2022/10/03 02:17:59;;;;;;;4.38;3.75;;;17.10;56.20;;;;;;4945222;29;20198;-36
2022/10/03 02:20:42;;;;;;;4.50;3.95;;;17.10;56.20;;;;;;4951787;28;20205;-36
2022/10/03 02:23:39;;;;;;;4.00;3.60;;;17.10;56.10;;;;;;4952246;28;20229;-36
2022/10/03 02:26:37;;;;;;;3.70;3.40;;;17.20;56.10;;;;;;4952119;28;20230;-36
2022/10/03 02:29:36;;;;;;;4.05;3.65;;;17.20;56.10;;;;;;4950298;29;20199;-36
2022/10/03 02:32:38;;;;;;;3.45;3.15;;;17.20;56.00;;;;;;4950934;28;20350;-36
2022/10/03 02:35:48;;;;;;;4.72;3.83;;;17.30;56.10;;;;;;4951683;28;20651;-36
2022/10/03 02:38:35;;;;;;;3.78;3.40;;;17.30;56.00;;;;;;4914492;29;20211;-36
2022/10/03 02:41:31;;;;;;;3.88;3.40;;;17.30;56.00;;;;;;4932550;29;20207;-36
2022/10/03 02:44:40;;;;;;;4.43;3.45;;;17.30;56.00;;;;;;4932721;29;20204;-36
2022/10/03 02:47:50;;;;;;;4.13;3.47;;;17.40;56.10;;;;;;4934535;29;20229;-35
2022/10/03 02:50:51;;;;;;;4.65;4.18;;;17.40;56.10;;;;;;4938722;28;20203;-36
2022/10/03 02:54:20;;;;;;;4.13;3.72;;;17.40;56.10;;;;;;4913406;29;20199;-36
2022/10/03 02:57:26;;;;;;;4.97;3.88;;;17.40;56.00;;;;;;4818914;29;20207;-36
2022/10/03 03:00:11;;;;;;;4.03;3.63;;;17.50;56.00;;;;;;4905707;29;20212;-38
2022/10/03 03:03:21;;;;;;;4.00;3.58;;;17.50;56.00;;;;;;4940969;29;20569;-37
2022/10/03 03:06:24;;;;;;;4.45;4.00;;;17.50;56.00;;;;;;4931994;28;20199;-36
2022/10/03 03:09:34;;;;;;;5.05;3.70;;;17.50;56.00;;;;;;4945632;28;20691;-36
2022/10/03 03:12:34;;;;;;;3.53;3.22;;;17.50;56.00;;;;;;4935599;29;20226;-36
2022/10/03 03:15:40;;;;;;;4.10;3.53;;;17.60;56.00;;;;;;4935364;29;20200;-36
2022/10/03 03:18:23;;;;;;;3.65;3.33;;;17.60;56.00;;;;;;4947956;29;20570;-37
2022/10/03 03:21:07;;;;;;;3.58;3.28;;;17.60;56.10;;;;;;4955138;28;20203;-36
2022/10/03 03:24:16;;;;;;;3.72;3.20;;;17.60;56.10;;;;;;4954947;28;20202;-36
2022/10/03 03:27:02;;;;;;;3.63;3.33;;;17.60;56.10;;;;;;4954695;28;20563;-35
2022/10/03 03:29:44;;;;;;;3.55;3.22;;;17.70;56.10;;;;;;4955061;28;20194;-36
2022/10/03 03:32:25;;;;;;;3.47;3.17;;;17.70;56.10;;;;;;4954251;28;20222;-36
2022/10/03 03:35:06;;;;;;;3.50;3.20;;;17.70;56.10;;;;;;4955015;28;20202;-37
2022/10/03 03:37:44;;;;;;;3.40;3.10;;;17.70;56.10;;;;;;4955061;28;20203;-36
2022/10/03 03:40:33;;;;;;;4.13;3.60;;;17.70;56.10;;;;;;4916504;29;20211;-36
2022/10/03 03:43:24;;;;;;;3.85;3.53;;;17.70;56.00;;;;;;4916730;29;20230;-36
2022/10/03 03:46:07;;;;;;;3.53;3.22;;;17.70;56.00;;;;;;4915220;29;20208;-35
2022/10/03 03:48:53;;;;;;;3.85;3.50;;;17.70;56.00;;;;;;4945058;29;20639;-36
2022/10/03 03:51:34;;;;;;;4.88;3.50;;;17.70;56.00;;;;;;4954563;28;20235;-36
2022/10/03 03:54:25;;;;;;;5.75;3.63;;;17.70;56.00;;;;;;4954603;28;20538;-36
2022/10/03 03:57:39;;;;;;;3.85;3.10;;;17.70;56.00;;;;;;4954463;28;20297;-36
2022/10/03 04:00:17;;;;;;;3.60;3.30;;;17.80;56.10;;;;;;4912848;29;20208;-36
2022/10/03 04:03:08;;;;;;;3.50;3.20;;;17.80;56.00;;;;;;4911951;29;20307;-36
2022/10/03 04:05:59;;;;;;;4.18;3.80;;;17.80;56.00;;;;;;4943748;28;20776;-36
2022/10/03 04:09:00;;;;;;;3.83;3.38;;;17.80;55.90;;;;;;4945802;28;20254;-36
2022/10/03 04:11:38;;;;;;;3.80;3.40;;;17.80;56.00;;;;;;4933682;29;20308;-37
2022/10/03 04:14:42;;;;;;;3.60;3.30;;;17.80;55.90;;;;;;4933620;29;20200;-36
2022/10/03 04:20:28;;;;;;;4.13;3.30;;;17.80;55.90;;;;;;4953189;29;20226;-36
2022/10/03 04:23:22;;;;;;;4.15;3.75;;;17.80;55.90;;;;;;4952834;28;20254;-36
2022/10/03 04:26:27;;;;;;;3.53;3.22;;;17.80;56.30;;;;;;4953017;28;20199;-38
2022/10/03 04:29:35;;;;;;;4.95;3.25;;;17.90;56.60;;;;;;4952931;28;20223;-37
2022/10/03 04:32:14;;;;;;;3.90;3.38;;;17.80;56.40;;;;;;4952204;28;20218;-36
2022/10/03 04:34:55;;;;;;;3.75;3.20;;;17.90;56.30;;;;;;4914421;29;20204;-40
2022/10/03 04:37:33;;;;;;;3.60;3.25;;;17.90;56.20;;;;;;4914952;29;20295;-37
2022/10/03 04:40:23;;;;;;;3.75;3.20;;;17.90;56.10;;;;;;4932674;29;20668;-36
2022/10/03 04:43:06;;;;;;;3.75;3.35;;;17.90;56.00;;;;;;4933376;29;20230;-36
2022/10/03 04:45:50;;;;;;;3.40;3.03;;;18.00;56.00;;;;;;4933273;29;20200;-36
2022/10/03 04:48:28;;;;;;;3.70;3.40;;;18.00;55.90;;;;;;4942373;29;20769;-36
2022/10/03 04:51:09;;;;;;;3.78;3.30;;;17.90;55.80;;;;;;4952824;28;20252;-37
2022/10/03 04:53:51;;;;;;;4.30;3.38;;;17.90;55.70;;;;;;4952608;28;20547;-36
2022/10/03 04:56:40;;;;;;;3.63;3.17;;;18.00;55.70;;;;;;4935212;28;20196;-37
2022/10/03 04:59:40;;;;;;;4.40;3.08;;;18.00;55.70;;;;;;4813021;29;3539337;-36
2022/10/03 05:02:28;;;;;;;3.33;3.03;;;17.90;55.70;;;;;;4934194;29;20220;-36
2022/10/03 05:05:18;;;;;;;3.67;3.08;;;18.00;55.70;;;;;;4915664;29;20204;-36
2022/10/03 05:07:54;;;;;;;3.33;3.03;;;18.00;55.70;;;;;;4916368;29;20590;-39
2022/10/03 05:10:50;;;;;;;3.20;2.90;;;18.00;55.50;;;;;;4934195;29;20203;-36
2022/10/03 05:13:33;;;;;;;4.43;3.22;;;18.00;55.50;;;;;;4934067;29;20227;-37
2022/10/03 05:16:16;;;;;;;3.97;3.58;;;18.00;55.50;;;;;;4934827;29;20200;-37
2022/10/03 05:18:53;;;;;;;3.33;3.03;;;18.00;55.40;;;;;;4944884;29;20678;-41
2022/10/03 05:21:36;;;;;;;3.33;3.00;;;18.00;55.50;;;;;;4952387;28;20218;-36
2022/10/03 05:24:21;;;;;;;3.58;3.20;;;18.00;55.60;;;;;;4952782;28;20205;-36
2022/10/03 05:26:59;;;;;;;3.65;2.90;;;18.00;55.60;;;;;;4952704;29;20199;-37
2022/10/03 05:29:38;;;;;;;3.25;2.95;;;18.00;55.50;;;;;;4952980;29;20236;-36
2022/10/03 05:32:24;;;;;;;3.50;3.20;;;18.00;55.60;;;;;;4952919;28;20229;-38
2022/10/03 05:35:15;;;;;;;3.50;3.20;;;18.00;55.50;;;;;;4952583;28;20214;-37
2022/10/03 05:38:16;;;;;;;3.58;3.17;;;18.00;55.40;;;;;;4952211;28;20203;-35
2022/10/03 05:41:01;;;;;;;3.80;3.40;;;17.90;55.40;;;;;;4933714;29;20195;-36
2022/10/03 05:43:47;;;;;;;4.47;3.30;;;18.00;55.40;;;;;;4933271;29;20191;-39
2022/10/03 05:46:34;;;;;;;3.53;3.15;;;18.00;55.40;;;;;;4924826;29;20208;-36
2022/10/03 05:49:25;;;;;;;3.45;3.15;;;18.00;55.40;;;;;;4938368;29;20222;-36
2022/10/03 05:52:27;;;;;;;3.30;3.00;;;18.00;55.30;;;;;;4952987;28;20229;-36
2022/10/03 05:55:23;;;;;;;3.75;3.42;;;18.00;55.30;;;;;;4952516;28;20205;-35
2022/10/03 05:58:31;;;;;;;3.60;3.10;;;17.90;55.00;;;;;;4952188;28;20203;-35
2022/10/03 06:01:27;;;;;;;4.18;3.78;;;17.90;55.10;;;;;;4926893;28;20207;-35
2022/10/03 06:04:23;;;;;;;4.63;3.08;;;17.90;55.10;;;;;;4934657;29;20207;-37
2022/10/03 06:07:15;;;;;;;4.00;3.60;;;17.90;55.20;;;;;;4952442;28;20209;-35
2022/10/03 06:10:16;;;;;;;4.43;3.28;;;17.90;55.20;;;;;;4936027;28;20208;-35
2022/10/03 06:12:55;;;;;;;4.07;3.33;;;17.80;55.10;;;;;;4926502;29;20297;-35
2022/10/03 06:16:03;;;;;;;4.35;3.17;;;17.80;55.10;;;;;;4931988;29;20671;-38
2022/10/03 06:19:07;;;;;;;5.18;3.30;;;17.90;55.10;;;;;;4938922;29;20199;-35
2022/10/03 06:22:16;;;;;;;4.22;3.10;;;17.90;55.10;;;;;;4930990;28;20713;-38
2022/10/03 06:25:27;;;;;;;4.13;2.85;;;17.80;55.00;;;;;;4951851;28;20713;-38
2022/10/03 06:28:27;;;;;;;3.97;3.10;;;17.80;55.00;;;;;;4951648;28;20222;-41
2022/10/03 06:31:31;;;;;;;4.97;3.15;;;17.80;55.00;;;;;;4951694;28;20289;-37
2022/10/03 06:34:43;;;;;;;3.92;3.33;;;17.80;55.00;;;;;;4951324;28;20199;-35
2022/10/03 06:37:45;;;;;;;3.55;3.25;;;17.80;54.90;;;;;;4952181;28;20214;-35
2022/10/03 06:40:50;;;;;;;3.50;2.92;;;17.80;55.00;;;;;;4903957;29;20204;-36
2022/10/03 06:43:58;;;;;;;3.78;3.38;;;17.80;54.90;;;;;;4913657;29;20223;-36
2022/10/03 06:47:08;;;;;;;4.03;2.95;;;17.80;54.90;;;;;;4902469;29;20208;-35
2022/10/03 06:50:19;;;;;;;4.55;3.40;;;17.80;54.90;;;;;;4926606;29;20610;-35
2022/10/03 06:53:25;;;;;;;3.25;2.95;;;17.70;54.80;;;;;;4932093;29;20220;-35
2022/10/03 06:56:20;;;;;;;4.13;2.83;;;17.80;54.90;;;;;;4932562;29;20207;-35
2022/10/03 06:59:20;;;;;;;4.57;3.10;;;17.70;54.90;;;;;;4932640;29;20378;-37
2022/10/03 07:02:07;;;;;;;5.13;2.90;;;17.70;54.90;;;;;;4925279;29;20513;-38
2022/10/03 07:05:06;;;;;;;4.97;2.63;;;17.70;56.20;;;;;;4944713;29;20203;-43
2022/10/03 07:08:09;;;;;;;8.35;2.85;;;17.80;58.40;;;;;;4950918;28;20601;-49
2022/10/03 07:10:56;;;;;;;9.32;2.92;;;17.80;52.10;;;;;;4931848;29;20710;-54
2022/10/03 07:14:21;;;;;;;11.60;3.05;;;17.60;50.10;;;;;;4932202;29;20258;-37
2022/10/03 07:17:21;;;;;;;10.73;3.03;;;17.40;50.40;;;;;;4892010;29;20193;-36
2022/10/03 07:20:18;;;;;;;9.95;2.75;;;17.30;51.00;;;;;;4945607;29;20675;-36
2022/10/03 07:23:40;;;;;;;8.45;2.72;;;17.30;51.20;;;;;;4951405;28;20726;-36
2022/10/03 07:26:53;;;;;;;9.65;2.65;;;17.20;51.40;;;;;;4951312;28;20628;-35
2022/10/03 07:29:39;;;;;;;8.23;3.13;;;17.20;51.50;;;;;;4910706;29;20303;-36
2022/10/03 07:32:31;;;;;;;8.52;2.45;;;17.20;52.20;;;;;;4951412;28;20214;-35
2022/10/03 07:35:26;;;;;;;10.02;3.05;;;17.20;51.70;;;;;;4950535;28;20195;-39
2022/10/03 07:41:31;;;;;;;7.18;2.80;;;17.20;51.80;;;;;;4932228;29;20199;-39
2022/10/03 07:44:35;;;;;;;7.25;2.67;;;17.10;51.90;;;;;;4934314;29;20207;-37
2022/10/03 07:47:50;;;;;;;8.60;3.10;;;17.10;52.00;;;;;;4932664;29;20575;-37
2022/10/03 07:50:58;;;;;;;6.22;2.60;;;17.10;52.10;;;;;;4908497;29;20214;-36
2022/10/03 07:54:17;;;;;;;7.97;2.17;;;17.10;52.20;;;;;;4934716;29;20203;-36
2022/10/03 07:57:04;;;;;;;5.25;2.38;;;17.10;52.20;;;;;;4919526;29;20200;-36
2022/10/03 08:00:10;;;;;;;7.95;2.58;;;17.20;52.30;;;;;;4935248;29;20267;-36
2022/10/03 08:03:08;;;;;;;5.68;2.58;;;17.10;52.30;;;;;;4935393;29;20215;-36
2022/10/03 08:05:55;;;;;;;8.02;2.80;;;17.10;52.30;;;;;;4951271;29;20210;-36
2022/10/03 08:08:56;;;;;;;6.18;2.80;;;17.10;52.40;;;;;;4948222;28;20586;-40
2022/10/03 08:12:10;;;;;;;6.68;2.47;;;17.10;52.50;;;;;;4935056;29;20219;-36
2022/10/03 08:14:53;;;;;;;6.05;2.20;;;17.10;52.50;;;;;;4925412;29;20660;-36
2022/10/03 08:18:06;;;;;;;5.60;2.55;;;17.10;52.60;;;;;;4935362;29;20612;-36
2022/10/03 08:20:54;;;;;;;5.50;2.35;;;17.10;52.70;;;;;;4950963;29;20211;-36
2022/10/03 08:23:56;;;;;;;6.63;2.40;;;17.10;52.80;;;;;;4954016;28;20746;-36
2022/10/03 08:26:42;;;;;;;4.85;2.10;;;17.10;53.50;;;;;;4937736;28;20202;-36
2022/10/03 08:29:32;;;;;;;5.35;2.22;;;17.10;53.90;;;;;;4953649;28;20222;-38
2022/10/03 08:32:44;;;;;;;5.22;2.15;;;17.10;53.90;;;;;;4953428;28;20219;-44
2022/10/03 08:35:34;;;;;;;4.72;2.47;;;17.20;53.90;;;;;;4953122;28;20199;-36
2022/10/03 08:38:33;;;;;;;4.15;2.05;;;17.20;53.80;;;;;;4950573;28;20211;-41
2022/10/03 08:41:49;;;;;;;6.63;2.25;;;17.20;53.80;;;;;;4934675;29;20211;-38
2022/10/03 08:45:00;;;;;;;9.07;2.58;;;17.10;53.70;;;;;;4934382;29;20204;-37
2022/10/03 08:48:07;;;;;;;4.78;2.30;;;17.10;53.80;;;;;;4933802;29;20200;-36
2022/10/03 08:50:47;;;;;;;7.22;2.20;;;17.10;53.80;;;;;;4922314;29;20204;-36
2022/10/03 08:53:55;;;;;;;5.40;2.30;;;17.10;53.80;;;;;;4935340;29;20223;-40
2022/10/03 08:56:34;;;;;;;5.45;2.33;;;17.10;53.80;;;;;;4926748;29;20390;-36
2022/10/03 08:59:25;;;;;;;4.80;2.22;;;17.10;53.80;;;;;;4924488;29;20240;-36
2022/10/03 09:02:36;;;;;;;5.38;2.42;;;17.10;53.80;;;;;;4932657;29;20227;-36
2022/10/03 09:05:34;;;;;;;5.72;2.22;;;17.10;53.80;;;;;;4935385;29;20196;-36
2022/10/03 09:08:34;;;;;;;6.45;2.10;;;17.10;53.90;;;;;;4930879;29;20206;-36
2022/10/03 09:11:37;;;;;;;3.90;2.25;;;17.10;53.90;;;;;;4922613;29;20192;-36
2022/10/03 09:14:34;;;;;;;4.25;1.98;;;17.10;53.90;;;;;;4916577;29;20743;-36
2022/10/03 09:17:36;;;;;;;3.50;2.10;;;17.00;54.00;;;;;;4916101;29;20692;-39
2022/10/03 09:20:45;;;;;;;5.57;2.30;;;17.00;54.00;;;;;;4914178;29;20222;-45
2022/10/03 09:24:06;;;;;;;4.35;2.45;;;17.00;54.00;;;;;;4915906;29;20220;-42
2022/10/03 09:27:19;;;;;;;4.38;2.25;;;17.00;54.00;;;;;;4915505;29;20843;-38
2022/10/03 09:30:18;;;;;;;3.97;2.28;;;17.00;54.10;;;;;;4914774;29;20227;-36
2022/10/03 09:33:24;;;;;;;4.15;1.88;;;17.00;54.00;;;;;;4915730;29;20310;-38
2022/10/03 09:36:25;;;;;;;4.90;2.22;;;17.00;54.00;;;;;;4915076;29;20238;-36
2022/10/03 09:39:24;;;;;;;3.58;1.98;;;17.00;54.00;;;;;;4924939;29;20213;-38
2022/10/03 09:42:28;;;;;;;3.97;2.15;;;17.00;54.10;;;;;;4910048;29;20228;-36
2022/10/03 09:45:31;;;;;;;3.95;2.20;;;16.90;54.00;;;;;;4925729;29;20206;-36
2022/10/03 09:48:25;;;;;;;3.92;2.03;;;16.90;54.00;;;;;;4914830;29;20200;-38
2022/10/03 09:51:27;;;;;;;4.93;2.20;;;16.90;54.10;;;;;;4915000;29;20579;-45
2022/10/03 09:54:31;;;;;;;3.47;1.85;;;16.90;54.10;;;;;;4914208;29;20291;-40
2022/10/03 09:57:30;;;;;;;4.18;2.30;;;16.90;54.20;;;;;;4910369;29;20212;-43
2022/10/03 10:00:27;;;;;;;3.90;2.03;;;16.90;54.10;;;;;;4915170;29;20212;-37
2022/10/03 10:03:21;;;;;;;4.35;2.33;;;16.90;54.10;;;;;;4914842;29;20220;-42
2022/10/03 10:06:32;;;;;;;4.13;2.17;;;16.90;54.10;;;;;;4914156;29;20201;-43
2022/10/03 10:09:40;;;;;;;5.22;2.03;;;16.90;54.10;;;;;;4925519;29;20234;-41
2022/10/03 10:12:42;;;;;;;4.72;2.10;;;16.90;54.10;;;;;;4933916;29;20223;-42
2022/10/03 10:15:44;;;;;;;5.38;2.30;;;16.90;54.10;;;;;;4933333;29;20199;-43
2022/10/03 10:18:37;;;;;;;3.53;1.80;;;16.90;54.20;;;;;;4929910;29;20285;-37
2022/10/03 10:21:53;;;;;;;3.47;1.70;;;16.80;54.20;;;;;;4933595;29;20204;-38
2022/10/03 10:25:00;;;;;;;3.95;2.15;;;16.80;54.20;;;;;;4934050;29;20195;-36
2022/10/03 10:28:01;;;;;;;3.53;1.88;;;16.80;54.20;;;;;;4933699;29;20204;-48
2022/10/03 10:31:14;;;;;;;3.35;1.90;;;16.80;54.20;;;;;;4933190;29;20226;-38
2022/10/03 10:34:15;;;;;;;3.30;1.92;;;16.80;54.20;;;;;;4932895;29;20200;-36
2022/10/03 10:37:18;;;;;;;4.43;2.28;;;16.80;54.30;;;;;;4932748;29;20195;-42
2022/10/03 10:40:27;;;;;;;3.00;2.22;;;16.80;54.20;;;;;;4932878;29;20213;-38
2022/10/03 10:43:41;;;;;;;3.72;1.90;;;16.80;54.20;;;;;;4914031;29;20263;-46
2022/10/03 10:46:48;;;;;;;3.25;1.90;;;16.80;54.20;;;;;;4924254;29;20206;-42
2022/10/03 10:49:50;;;;;;;4.15;2.20;;;16.70;54.20;;;;;;4905258;29;20215;-36
2022/10/03 10:52:48;;;;;;;3.58;2.05;;;16.70;54.30;;;;;;4931465;29;20218;-36
2022/10/03 10:55:56;;;;;;;5.18;2.30;;;16.70;54.30;;;;;;4932243;29;20202;-36
2022/10/03 10:59:15;;;;;;;3.67;2.08;;;16.70;54.30;;;;;;4927311;29;20567;-39
2022/10/03 11:02:28;;;;;;;3.85;2.25;;;16.70;54.40;;;;;;4933402;29;20231;-36
2022/10/03 11:05:34;;;;;;;5.22;2.20;;;16.70;54.40;;;;;;4899441;29;20667;-36
2022/10/03 11:08:58;;;;;;;4.00;2.05;;;16.70;54.40;;;;;;4931814;29;20192;-36
2022/10/03 11:12:15;;;;;;;3.90;2.03;;;16.70;54.40;;;;;;4931602;29;20212;-36
2022/10/03 11:15:19;;;;;;;2.75;1.65;;;16.70;54.30;;;;;;4922121;29;20262;-36
2022/10/03 11:18:39;;;;;;;4.93;2.13;;;16.70;54.30;;;;;;4918543;29;20570;-36
2022/10/03 11:21:40;;;;;;;3.30;1.90;;;16.60;54.90;;;;;;4936093;29;20263;-36
2022/10/03 11:24:51;;;;;;;3.58;2.13;;;16.70;54.50;;;;;;4935707;29;20896;-35
2022/10/03 11:28:04;;;;;;;4.05;2.03;;;16.60;54.50;;;;;;4937694;29;20199;-36
2022/10/03 11:31:17;;;;;;;3.38;1.92;;;16.60;54.50;;;;;;4948631;28;20223;-36
2022/10/03 11:34:15;;;;;;;4.35;2.10;;;16.60;54.50;;;;;;4936489;28;20226;-35
2022/10/03 11:37:07;;;;;;;3.28;2.05;;;16.50;54.50;;;;;;4954702;28;20195;-36
2022/10/03 11:39:50;;;;;;;4.43;1.90;;;16.50;54.50;;;;;;4939222;28;20207;-36
2022/10/03 11:42:32;;;;;;;3.83;2.08;;;16.50;54.50;;;;;;4936780;29;20699;-36
2022/10/03 11:45:04;;;;;;;4.13;2.03;;;16.50;54.50;;;;;;4955003;28;20282;-36
2022/10/03 11:47:53;;;;;;;4.15;2.00;;;16.60;54.50;;;;;;4954625;28;20572;-36
2022/10/03 11:50:41;;;;;;;3.60;1.80;;;16.50;54.80;;;;;;4954572;28;20298;-36
2022/10/03 11:53:24;;;;;;;3.67;1.95;;;16.50;54.50;;;;;;4954586;28;20230;-36
2022/10/03 11:56:05;;;;;;;3.15;1.90;;;16.50;54.60;;;;;;4954720;28;20207;-36
2022/10/03 11:58:52;;;;;;;4.75;1.92;;;16.50;54.60;;;;;;4953871;28;20199;-37
2022/10/03 12:01:35;;;;;;;4.10;2.13;;;16.50;54.60;;;;;;4954723;28;20215;-36
2022/10/03 12:04:17;;;;;;;5.82;1.90;;;16.50;54.60;;;;;;4954296;28;20203;-36
2022/10/03 12:10:05;;;;;;;3.65;1.88;;;16.40;54.60;;;;;;4936463;29;20237;-36
2022/10/03 12:12:41;;;;;;;3.33;1.90;;;16.40;54.60;;;;;;4936562;29;20791;-36
2022/10/03 12:15:34;;;;;;;4.43;2.10;;;16.50;54.60;;;;;;4954052;28;20202;-36
2022/10/03 12:18:11;;;;;;;3.80;1.85;;;16.40;54.60;;;;;;4954309;28;20234;-36
2022/10/03 12:21:06;;;;;;;3.47;2.10;;;16.50;54.60;;;;;;4954011;28;20199;-36
2022/10/03 12:23:56;;;;;;;3.80;1.80;;;16.40;54.50;;;;;;4952518;28;20678;-36
2022/10/03 12:26:35;;;;;;;2.13;1.70;;;16.40;54.60;;;;;;4954053;28;20210;-36
2022/10/03 12:29:07;;;;;;;4.25;1.90;;;16.40;54.60;;;;;;4953258;28;20801;-36
2022/10/03 12:31:43;;;;;;;2.50;1.98;;;16.40;54.60;;;;;;4953993;28;20222;-35
2022/10/03 12:34:32;;;;;;;2.50;1.70;;;16.30;54.60;;;;;;4954198;28;20199;-36
2022/10/03 12:37:32;;;;;;;2.45;1.67;;;16.30;54.70;;;;;;4953581;28;20203;-36
2022/10/03 12:40:10;;;;;;;3.33;1.80;;;16.30;54.70;;;;;;4935163;28;20740;-36
2022/10/03 12:42:46;;;;;;;2.88;1.38;;;16.30;54.70;;;;;;4935320;29;20217;-36
2022/10/03 12:45:25;;;;;;;3.13;1.88;;;16.30;54.70;;;;;;4953617;28;20207;-36
2022/10/03 12:48:21;;;;;;;2.08;1.50;;;16.30;54.70;;;;;;4953315;28;20202;-36
2022/10/03 12:51:01;;;;;;;2.30;1.70;;;16.30;54.60;;;;;;4953255;28;20226;-36
2022/10/03 12:53:40;;;;;;;3.95;1.98;;;16.30;54.60;;;;;;4953763;28;20197;-36
2022/10/03 12:56:19;;;;;;;2.53;1.63;;;16.30;54.70;;;;;;4939163;28;20239;-35
2022/10/03 12:59:08;;;;;;;5.32;1.90;;;16.30;54.70;;;;;;4933805;29;20650;-38
2022/10/03 13:02:03;;;;;;;3.15;1.65;;;16.30;54.70;;;;;;4949728;28;20223;-36
2022/10/03 13:04:41;;;;;;;2.55;1.60;;;16.20;54.70;;;;;;4914515;29;20199;-35
2022/10/03 13:07:21;;;;;;;2.55;1.40;;;16.20;54.70;;;;;;4915183;29;20568;-37
2022/10/03 13:10:06;;;;;;;3.58;1.88;;;16.20;54.80;;;;;;4931870;29;20234;-36
2022/10/03 13:12:46;;;;;;;3.63;1.50;;;16.20;54.80;;;;;;4933762;29;20227;-36
2022/10/03 13:15:45;;;;;;;2.92;1.77;;;16.20;54.80;;;;;;4914948;29;20203;-40
2022/10/03 13:18:29;;;;;;;2.58;1.50;;;16.20;54.80;;;;;;4914867;29;20204;-37
2022/10/03 13:21:08;;;;;;;3.35;1.80;;;16.20;54.70;;;;;;4914655;29;20222;-37
2022/10/03 13:23:47;;;;;;;2.47;1.45;;;16.20;54.70;;;;;;4915094;29;20200;-36
2022/10/03 13:26:26;;;;;;;2.53;1.55;;;16.20;54.70;;;;;;4914999;29;20685;-36
2022/10/03 13:29:18;;;;;;;2.88;1.60;;;16.10;54.70;;;;;;4932813;29;20198;-36
2022/10/03 13:32:02;;;;;;;3.83;1.70;;;16.10;54.70;;;;;;4938234;28;20219;-36
2022/10/03 13:34:48;;;;;;;3.10;1.67;;;16.10;54.80;;;;;;4933399;29;20211;-36
2022/10/03 13:37:27;;;;;;;2.90;1.70;;;16.10;54.80;;;;;;4932772;29;20196;-44
2022/10/03 13:40:03;;;;;;;4.57;1.80;;;16.00;54.80;;;;;;4933335;29;20719;-44
2022/10/03 13:42:40;;;;;;;3.28;1.70;;;16.00;54.80;;;;;;4933346;29;20229;-44
2022/10/03 13:45:19;;;;;;;3.72;1.80;;;16.00;54.90;;;;;;4951526;29;20198;-44
2022/10/03 13:47:54;;;;;;;2.60;1.65;;;16.00;54.90;;;;;;4952619;28;20206;-44
2022/10/03 13:50:30;;;;;;;2.95;2.00;;;16.00;54.80;;;;;;4952145;28;20241;-44
2022/10/03 13:53:05;;;;;;;3.95;1.60;;;16.00;54.80;;;;;;4952179;28;20301;-44
2022/10/03 13:55:46;;;;;;;3.03;1.70;;;16.00;54.80;;;;;;4952123;28;20206;-44
2022/10/03 13:58:47;;;;;;;2.53;1.80;;;15.90;54.80;;;;;;4951384;28;20202;-44
2022/10/03 14:01:41;;;;;;;3.72;1.83;;;15.90;54.70;;;;;;4930254;28;20199;-37
2022/10/03 14:04:38;;;;;;;4.43;1.90;;;15.90;54.80;;;;;;4952300;28;20217;-36
2022/10/03 14:07:18;;;;;;;3.13;1.63;;;15.90;54.80;;;;;;4952312;28;20278;-36
2022/10/03 14:10:25;;;;;;;5.10;1.73;;;15.90;54.80;;;;;;4935091;28;20206;-36
2022/10/03 14:13:15;;;;;;;3.20;1.88;;;15.80;54.80;;;;;;4932813;29;20223;-36
2022/10/03 14:16:00;;;;;;;1.77;1.40;;;15.80;54.80;;;;;;4914024;29;20196;-36
2022/10/03 14:18:47;;;;;;;4.28;1.83;;;15.80;54.80;;;;;;4913937;29;20215;-37
2022/10/03 14:21:45;;;;;;;3.70;1.92;;;15.80;54.90;;;;;;4913132;29;20201;-37
2022/10/03 14:24:41;;;;;;;2.13;1.30;;;15.70;54.80;;;;;;4913317;29;20238;-36
2022/10/03 14:27:32;;;;;;;3.55;1.70;;;15.70;54.80;;;;;;4913169;29;20292;-36
2022/10/03 14:30:08;;;;;;;3.75;1.80;;;15.70;54.80;;;;;;4942925;29;20223;-37
2022/10/03 14:32:50;;;;;;;3.15;1.70;;;15.70;54.80;;;;;;4951826;28;20322;-36
2022/10/03 14:35:44;;;;;;;2.78;1.65;;;15.70;54.80;;;;;;4951731;28;20588;-36
2022/10/03 14:41:27;;;;;;;3.08;1.70;;;15.60;54.80;;;;;;4932761;29;20223;-36
2022/10/03 14:44:00;;;;;;;2.42;1.20;;;15.60;54.80;;;;;;4938058;29;20662;-36
2022/10/03 14:46:37;;;;;;;3.05;1.80;;;15.60;54.80;;;;;;4951695;28;20203;-37
2022/10/03 14:49:18;;;;;;;3.25;1.70;;;15.60;54.80;;;;;;4951736;28;20230;-36
2022/10/03 14:51:53;;;;;;;3.83;1.63;;;15.60;54.90;;;;;;4952065;28;20226;-37
2022/10/03 14:54:27;;;;;;;3.58;1.65;;;15.50;54.90;;;;;;4955712;28;20229;-40
2022/10/03 14:56:59;;;;;;;3.55;1.70;;;15.50;54.80;;;;;;4956047;28;20202;-38
2022/10/03 14:59:32;;;;;;;4.70;1.58;;;15.50;54.80;;;;;;4949397;28;20204;-37
2022/10/03 15:02:19;;;;;;;3.55;1.65;;;15.50;54.80;;;;;;4925070;29;20219;-36
2022/10/03 15:04:55;;;;;;;2.53;1.70;;;15.50;54.80;;;;;;4935999;29;20210;-36
2022/10/03 15:07:37;;;;;;;2.50;1.63;;;15.50;54.80;;;;;;4936208;29;20195;-39
2022/10/03 15:10:12;;;;;;;3.72;1.65;;;15.50;54.80;;;;;;4936190;29;20196;-36
2022/10/03 15:12:47;;;;;;;3.55;1.83;;;15.40;54.80;;;;;;4936276;29;20215;-36